Time;durP1;ratioP1;P1;durP2;ratioP2;P2;SDS_P1;SDS_P2;PMS_P1;PMS_P2;Temp;Humidity;BMP_temperature;BMP_pressure;BME280_temperature;BME280_humidity;BME280_pressure;Samples;Min_cycle;Max_cycle;Signal;HPM_P1;HPM_P2
2022/06/28 00:01:43;;;;;;;7.60;4.95;;;16.90;99.90;;;;;;5042513;28;20311;-68
2022/06/28 00:04:11;;;;;;;6.32;5.72;;;17.00;99.90;;;;;;5043101;28;20378;-68
2022/06/28 00:06:38;;;;;;;12.60;6.45;;;17.20;99.90;;;;;;5032710;28;20216;-67
2022/06/28 00:09:05;;;;;;;9.18;6.65;;;17.10;99.90;;;;;;5037220;28;20215;-67
2022/06/28 00:11:32;;;;;;;7.82;6.70;;;17.30;99.90;;;;;;5050169;28;20201;-67
2022/06/28 00:13:59;;;;;;;8.15;7.35;;;17.30;99.90;;;;;;5013872;28;20221;-67
2022/06/28 00:16:25;;;;;;;7.40;6.07;;;16.60;99.90;;;;;;5009555;28;20224;-68
2022/06/28 00:18:51;;;;;;;11.32;6.68;;;17.20;99.90;;;;;;5030926;28;20213;-68
2022/06/28 00:21:20;;;;;;;6.63;5.97;;;17.30;99.90;;;;;;5036478;28;20826;-68
2022/06/28 00:23:48;;;;;;;7.15;6.45;;;17.50;99.90;;;;;;5028900;28;20212;-67
2022/06/28 00:26:15;;;;;;;10.27;6.45;;;17.30;99.90;;;;;;5037016;28;20317;-67
2022/06/28 00:28:42;;;;;;;8.25;6.90;;;17.20;99.90;;;;;;5046281;28;20225;-67
2022/06/28 00:31:09;;;;;;;8.40;6.10;;;17.40;99.90;;;;;;5012240;28;20572;-68
2022/06/28 00:33:36;;;;;;;7.88;6.10;;;17.20;99.90;;;;;;5038285;28;21114;-67
2022/06/28 00:36:02;;;;;;;10.05;6.93;;;17.00;99.90;;;;;;5038290;28;20280;-67
2022/06/28 00:38:31;;;;;;;9.10;6.50;;;18.30;99.90;;;;;;5034437;28;20201;-67
2022/06/28 00:40:58;;;;;;;7.65;6.05;;;;;;;;;;5030299;28;20205;-67
2022/06/28 00:43:26;;;;;;;8.68;6.25;;;17.10;99.90;;;;;;5040369;28;20256;-67
2022/06/28 00:45:54;;;;;;;7.95;6.97;;;17.10;99.90;;;;;;5013995;28;20600;-68
2022/06/28 00:48:24;;;;;;;6.75;5.85;;;16.80;99.90;;;;;;5023100;28;20316;-67
2022/06/28 00:50:52;;;;;;;9.13;6.10;;;17.00;99.90;;;;;;5041270;28;20292;-68
2022/06/28 00:53:20;;;;;;;10.85;5.78;;;16.70;99.90;;;;;;5026593;28;20495;-68
2022/06/28 00:55:49;;;;;;;7.00;5.00;;;16.90;99.90;;;;;;5036327;28;20198;-67
2022/06/28 00:58:16;;;;;;;8.07;5.10;;;16.80;99.90;;;;;;5043685;28;20244;-67
2022/06/28 01:00:45;;;;;;;5.75;5.10;;;16.80;99.90;;;;;;5015792;28;20343;-67
2022/06/28 01:03:15;;;;;;;5.55;4.63;;;16.70;99.90;;;;;;5021454;28;20201;-67
2022/06/28 01:05:43;;;;;;;8.32;4.72;;;16.60;99.90;;;;;;5035025;28;21090;-67
2022/06/28 01:08:10;;;;;;;5.88;4.70;;;16.60;99.90;;;;;;5030313;28;20212;-67
2022/06/28 01:10:38;;;;;;;5.82;4.93;;;16.60;99.90;;;;;;5012307;28;20229;-67
2022/06/28 01:13:07;;;;;;;5.80;4.93;;;16.60;99.90;;;;;;5044591;28;20316;-67
2022/06/28 01:15:35;;;;;;;5.40;4.90;;;;;;;;;;5034727;28;20582;-67
2022/06/28 01:18:03;;;;;;;5.28;4.78;;;16.60;99.90;;;;;;5015259;28;20236;-67
2022/06/28 01:20:30;;;;;;;6.63;5.47;;;;;;;;;;5027184;28;20200;-67
2022/06/28 01:22:59;;;;;;;8.00;5.03;;;16.50;99.90;;;;;;5018678;28;20209;-68
2022/06/28 01:25:26;;;;;;;5.82;5.03;;;16.50;99.90;;;;;;5039824;28;20208;-67
2022/06/28 01:27:54;;;;;;;6.07;4.82;;;16.90;99.90;;;;;;5046882;28;20327;-68
2022/06/28 01:30:22;;;;;;;10.45;5.20;;;16.50;99.90;;;;;;5030273;28;20209;-68
2022/06/28 01:32:49;;;;;;;7.13;4.75;;;16.50;99.90;;;;;;5003735;28;20225;-67
2022/06/28 01:35:16;;;;;;;6.28;4.90;;;16.50;99.90;;;;;;5031624;28;20201;-67
2022/06/28 01:37:43;;;;;;;9.85;4.80;;;16.50;99.90;;;;;;5043194;28;20228;-67
2022/06/28 01:40:11;;;;;;;5.88;5.30;;;15.80;99.90;;;;;;5034896;28;20216;-66
2022/06/28 01:42:38;;;;;;;9.27;4.65;;;16.60;99.90;;;;;;5023479;28;20324;-67
2022/06/28 01:45:06;;;;;;;8.30;5.45;;;16.50;99.90;;;;;;5047077;28;20196;-67
2022/06/28 01:47:36;;;;;;;6.80;5.38;;;16.40;99.90;;;;;;5006723;28;20220;-68
2022/06/28 01:50:04;;;;;;;7.07;4.70;;;16.50;99.90;;;;;;5038617;28;20212;-68
2022/06/28 01:52:31;;;;;;;6.35;4.43;;;16.50;99.90;;;;;;5031045;28;21141;-67
2022/06/28 01:54:58;;;;;;;5.70;5.10;;;16.40;99.90;;;;;;5027710;28;20597;-67
2022/06/28 01:57:26;;;;;;;5.07;4.55;;;16.20;99.90;;;;;;5025949;28;20379;-67
2022/06/28 01:59:53;;;;;;;10.25;5.32;;;16.30;99.90;;;;;;5050966;28;20193;-67
2022/06/28 02:02:20;;;;;;;4.97;4.47;;;16.40;99.90;;;;;;5026376;28;20809;-68
2022/06/28 02:04:46;;;;;;;4.97;4.47;;;16.30;99.90;;;;;;5008692;28;20855;-67
2022/06/28 02:07:13;;;;;;;6.63;4.85;;;16.30;99.90;;;;;;5023311;28;20689;-67
2022/06/28 02:09:41;;;;;;;7.95;5.50;;;;;;;;;;5024728;28;20209;-67
2022/06/28 02:12:08;;;;;;;5.80;4.68;;;16.20;99.90;;;;;;5038835;28;20206;-67
2022/06/28 02:14:36;;;;;;;8.60;5.70;;;16.20;99.90;;;;;;5043157;28;20212;-67
2022/06/28 02:17:03;;;;;;;5.90;5.25;;;16.20;99.90;;;;;;5024597;28;20232;-67
2022/06/28 02:19:30;;;;;;;6.85;5.95;;;16.30;99.90;;;;;;5022988;28;20201;-67
2022/06/28 02:21:57;;;;;;;7.50;5.70;;;16.50;99.90;;;;;;5039617;28;20331;-67
2022/06/28 02:24:24;;;;;;;11.50;5.45;;;16.40;99.90;;;;;;5030530;28;20211;-67
2022/06/28 02:26:51;;;;;;;8.40;6.03;;;17.40;99.90;;;;;;5021867;28;20237;-67
2022/06/28 02:29:18;;;;;;;11.27;6.22;;;16.20;99.90;;;;;;5039478;28;20219;-67
2022/06/28 02:31:46;;;;;;;7.93;5.70;;;16.20;99.90;;;;;;5042478;28;20207;-67
2022/06/28 02:40:21;;;;;;;7.28;6.32;;;16.10;99.90;;;;;;5030123;28;20204;-67
2022/06/28 02:42:28;;;;;;;7.18;6.40;;;16.10;99.90;;;;;;5020252;28;20266;-67
2022/06/28 02:44:55;;;;;;;10.15;6.50;;;16.30;99.90;;;;;;5041857;28;20204;-67
2022/06/28 02:47:23;;;;;;;11.48;6.70;;;15.80;99.90;;;;;;5046183;28;20205;-67
2022/06/28 02:49:51;;;;;;;11.02;8.23;;;16.00;99.90;;;;;;5018080;28;20242;-67
2022/06/28 02:52:18;;;;;;;12.02;6.43;;;;;;;;;;5040521;28;20587;-67
2022/06/28 02:54:45;;;;;;;9.57;7.10;;;16.20;99.90;;;;;;5031664;28;20335;-67
2022/06/28 02:57:12;;;;;;;9.35;7.13;;;15.90;99.90;;;;;;5013531;28;20213;-67
2022/06/28 02:59:39;;;;;;;11.80;7.03;;;16.00;99.90;;;;;;5045885;28;20703;-67
2022/06/28 03:02:05;;;;;;;8.38;7.50;;;15.70;99.90;;;;;;5035559;28;21672;-67
2022/06/28 03:04:34;;;;;;;12.38;7.40;;;;;;;;;;5006320;28;20220;-66
2022/06/28 03:07:01;;;;;;;11.48;8.32;;;15.90;99.90;;;;;;5047163;28;20211;-67
2022/06/28 03:09:28;;;;;;;11.90;8.07;;;15.90;99.90;;;;;;5044708;28;20848;-67
2022/06/28 03:11:54;;;;;;;10.27;8.05;;;17.70;99.90;;;;;;5021081;28;21132;-67
2022/06/28 03:14:21;;;;;;;9.85;8.38;;;17.00;99.90;;;;;;5041794;28;20204;-67
2022/06/28 03:16:48;;;;;;;13.25;8.63;;;16.00;99.90;;;;;;5016188;28;20880;-68
2022/06/28 03:19:15;;;;;;;8.70;7.80;;;15.80;99.90;;;;;;5044414;28;20288;-67
2022/06/28 03:21:44;;;;;;;11.40;8.30;;;15.80;99.90;;;;;;5017858;28;20287;-68
2022/06/28 03:24:10;;;;;;;12.13;8.13;;;16.00;99.90;;;;;;5047602;28;20229;-67
2022/06/28 03:26:37;;;;;;;10.52;7.95;;;15.80;99.90;;;;;;5036088;28;20328;-68
2022/06/28 03:29:04;;;;;;;8.98;7.82;;;15.90;99.90;;;;;;5022485;28;20323;-67
2022/06/28 03:31:31;;;;;;;16.98;7.78;;;17.60;99.90;;;;;;5032537;28;23982;-67
2022/06/28 03:33:58;;;;;;;11.27;7.70;;;15.90;99.90;;;;;;5035240;28;20280;-67
2022/06/28 03:36:25;;;;;;;11.73;8.38;;;15.80;99.90;;;;;;5020966;28;20215;-67
2022/06/28 03:38:53;;;;;;;11.98;8.55;;;15.80;99.90;;;;;;5050103;28;20337;-68
2022/06/28 03:41:23;;;;;;;10.32;8.48;;;15.80;99.90;;;;;;5047073;28;20197;-67
2022/06/28 03:43:50;;;;;;;11.88;9.10;;;16.10;99.90;;;;;;5036726;28;20201;-67
2022/06/28 03:46:17;;;;;;;10.93;9.35;;;15.60;99.90;;;;;;5024601;28;20220;-68
2022/06/28 03:48:44;;;;;;;14.15;10.55;;;15.70;99.90;;;;;;5033599;28;20223;-67
2022/06/28 03:51:11;;;;;;;11.02;9.73;;;15.70;99.90;;;;;;5025036;28;20217;-67
2022/06/28 03:53:38;;;;;;;12.98;10.35;;;15.70;99.90;;;;;;5031530;28;20224;-67
2022/06/28 03:56:06;;;;;;;12.52;10.90;;;15.70;99.90;;;;;;5036932;28;20197;-68
2022/06/28 03:58:34;;;;;;;13.57;10.82;;;15.80;99.90;;;;;;5029208;28;20229;-67
2022/06/28 04:01:01;;;;;;;12.23;10.70;;;15.80;99.90;;;;;;5037579;28;20204;-67
2022/06/28 04:03:27;;;;;;;12.13;10.80;;;16.00;99.90;;;;;;5034881;28;20299;-67
2022/06/28 04:05:54;;;;;;;15.68;10.98;;;15.80;99.90;;;;;;5033890;28;20201;-67
2022/06/28 04:08:21;;;;;;;13.70;10.75;;;16.00;99.90;;;;;;5023263;28;20224;-68
2022/06/28 04:11:13;;;;;;;12.27;10.60;;;18.40;99.90;;;;;;5026107;28;20398;-68
2022/06/28 04:13:37;;;;;;;13.88;11.13;;;15.80;99.90;;;;;;5016286;28;20707;-67
2022/06/28 04:16:05;;;;;;;22.27;11.77;;;15.70;99.90;;;;;;5039134;28;20198;-68
2022/06/28 04:18:32;;;;;;;16.65;12.07;;;15.90;99.90;;;;;;5009716;28;20243;-68
2022/06/28 04:20:58;;;;;;;12.40;10.63;;;15.80;99.90;;;;;;5044986;28;20197;-67
2022/06/28 04:23:25;;;;;;;14.57;11.48;;;15.90;99.90;;;;;;5016197;28;20258;-67
2022/06/28 04:25:52;;;;;;;17.55;11.10;;;16.00;99.90;;;;;;5025760;28;20336;-66
2022/06/28 04:28:19;;;;;;;14.50;11.13;;;16.10;99.90;;;;;;5026115;28;20300;-68
2022/06/28 04:30:48;;;;;;;15.40;11.27;;;16.10;99.90;;;;;;5031497;28;20369;-67
2022/06/28 04:33:15;;;;;;;12.98;10.75;;;15.90;99.90;;;;;;5046430;28;20203;-67
2022/06/28 04:35:42;;;;;;;14.10;12.00;;;16.00;99.90;;;;;;5023854;28;20239;-67
2022/06/28 04:38:09;;;;;;;13.27;11.35;;;16.10;99.90;;;;;;5016525;28;21126;-66
2022/06/28 04:40:36;;;;;;;14.63;11.70;;;16.00;99.90;;;;;;5033211;28;20205;-66
2022/06/28 04:43:03;;;;;;;16.15;12.98;;;16.10;99.90;;;;;;5009673;28;20225;-67
2022/06/28 04:45:29;;;;;;;18.08;13.20;;;16.00;99.90;;;;;;5043836;28;20268;-67
2022/06/28 04:47:58;;;;;;;19.00;14.38;;;16.00;99.90;;;;;;5036443;28;20212;-67
2022/06/28 04:50:25;;;;;;;19.60;15.75;;;15.90;99.90;;;;;;5029471;28;20224;-67
2022/06/28 04:52:52;;;;;;;23.88;16.80;;;16.00;99.90;;;;;;5011721;28;20234;-66
2022/06/28 04:55:19;;;;;;;21.90;15.77;;;15.90;99.90;;;;;;5025774;28;20216;-67
2022/06/28 04:57:46;;;;;;;19.98;17.15;;;15.90;99.90;;;;;;5029070;28;20239;-67
2022/06/28 05:00:14;;;;;;;20.40;16.25;;;16.00;99.90;;;;;;5021128;28;28124;-67
2022/06/28 05:02:42;;;;;;;21.08;15.70;;;16.00;99.90;;;;;;5045638;28;20205;-66
2022/06/28 05:05:11;;;;;;;18.17;14.75;;;15.90;99.90;;;;;;5012931;28;20224;-66
2022/06/28 05:07:39;;;;;;;17.30;14.38;;;;;;;;;;5024112;28;20231;-66
2022/06/28 05:10:07;;;;;;;19.08;16.10;;;16.10;99.90;;;;;;5014658;28;20726;-67
2022/06/28 05:12:34;;;;;;;20.23;14.75;;;15.80;99.90;;;;;;5042339;28;20232;-67
2022/06/28 05:15:01;;;;;;;18.60;13.70;;;15.70;99.90;;;;;;5013078;28;20225;-67
2022/06/28 05:17:27;;;;;;;18.42;15.20;;;15.90;99.90;;;;;;5037416;28;20286;-67
2022/06/28 05:19:55;;;;;;;21.65;14.13;;;16.00;99.90;;;;;;5021727;28;20205;-67
2022/06/28 05:22:25;;;;;;;17.48;14.32;;;16.00;99.90;;;;;;5041474;28;20213;-66
2022/06/28 05:24:54;;;;;;;21.45;14.82;;;16.10;99.90;;;;;;5018644;28;20302;-68
2022/06/28 05:27:22;;;;;;;17.88;14.43;;;;;;;;;;5016663;28;20600;-68
2022/06/28 05:29:54;;;;;;;18.60;14.93;;;16.10;99.90;;;;;;5029445;28;20231;-67
2022/06/28 05:32:21;;;;;;;19.70;15.82;;;16.10;99.90;;;;;;5038349;28;20212;-66
2022/06/28 05:34:48;;;;;;;20.83;17.05;;;16.20;99.90;;;;;;5047294;28;20307;-67
2022/06/28 05:37:15;;;;;;;19.40;14.10;;;16.40;99.90;;;;;;5034286;28;20204;-67
2022/06/28 05:39:43;;;;;;;20.45;14.88;;;16.40;99.90;;;;;;5010006;28;20744;-68
2022/06/28 05:42:10;;;;;;;20.63;15.95;;;16.20;99.90;;;;;;5027331;28;20316;-68
2022/06/28 05:44:37;;;;;;;18.90;15.00;;;16.40;99.90;;;;;;5017464;28;21314;-68
2022/06/28 05:47:04;;;;;;;16.02;13.95;;;16.40;99.90;;;;;;5043824;28;20193;-68
2022/06/28 05:49:31;;;;;;;15.60;13.23;;;16.50;99.90;;;;;;5033939;28;20335;-67
2022/06/28 05:51:58;;;;;;;18.63;12.75;;;16.60;99.90;;;;;;5028659;28;20229;-67
2022/06/28 05:54:24;;;;;;;20.80;12.65;;;16.60;99.90;;;;;;5043102;28;20221;-68
2022/06/28 05:56:55;;;;;;;14.43;12.23;;;16.50;99.90;;;;;;5010888;28;20260;-68
2022/06/28 05:59:23;;;;;;;19.10;13.02;;;;;;;;;;5011920;28;22084;-67
2022/06/28 06:01:50;;;;;;;16.17;11.23;;;;;;;;;;5039531;28;20229;-68
2022/06/28 06:04:18;;;;;;;12.10;10.45;;;16.60;99.90;;;;;;5027299;28;20221;-68
2022/06/28 06:06:45;;;;;;;17.63;10.80;;;16.60;99.90;;;;;;5033405;28;20259;-68
2022/06/28 06:09:12;;;;;;;12.95;8.50;;;16.70;99.90;;;;;;5031476;28;20578;-68
2022/06/28 06:11:39;;;;;;;11.18;8.65;;;16.50;99.90;;;;;;5028288;28;20209;-68
2022/06/28 06:14:07;;;;;;;10.68;7.85;;;16.70;99.90;;;;;;5031612;28;20205;-67
2022/06/28 06:16:34;;;;;;;8.85;7.35;;;16.60;99.90;;;;;;5027666;28;20225;-68
2022/06/28 06:19:01;;;;;;;13.80;7.07;;;17.00;99.90;;;;;;5027990;28;20231;-68
2022/06/28 06:21:28;;;;;;;12.18;7.05;;;16.80;99.90;;;;;;5044278;28;20215;-68
2022/06/28 06:23:55;;;;;;;8.18;6.57;;;16.60;99.90;;;;;;5034044;28;21766;-67
2022/06/28 06:26:23;;;;;;;11.65;7.55;;;16.60;99.90;;;;;;5028153;28;25841;-68
2022/06/28 06:28:50;;;;;;;8.57;6.28;;;16.70;99.90;;;;;;5032717;28;20220;-66
2022/06/28 06:31:18;;;;;;;11.30;6.43;;;16.60;99.90;;;;;;5028050;28;20235;-68
2022/06/28 06:33:45;;;;;;;8.00;6.40;;;16.80;99.90;;;;;;5047737;28;20328;-68
2022/06/28 06:36:12;;;;;;;11.40;6.78;;;16.60;99.90;;;;;;5027535;28;20817;-67
2022/06/28 06:38:39;;;;;;;10.02;6.85;;;16.70;99.90;;;;;;5035147;28;20296;-68
2022/06/28 06:41:06;;;;;;;12.88;7.30;;;16.60;99.90;;;;;;5039081;28;20220;-67
2022/06/28 06:43:33;;;;;;;9.77;7.78;;;16.80;99.90;;;;;;5018251;28;20205;-68
2022/06/28 06:46:00;;;;;;;7.45;5.25;;;16.80;99.90;;;;;;5032547;28;20200;-68
2022/06/28 06:48:28;;;;;;;8.43;6.35;;;17.00;99.90;;;;;;5026832;28;20773;-68
2022/06/28 06:50:55;;;;;;;8.73;7.28;;;17.20;99.90;;;;;;5032376;28;20228;-67
2022/06/28 06:53:22;;;;;;;11.43;6.60;;;17.30;99.90;;;;;;5037228;28;20241;-68
2022/06/28 06:55:49;;;;;;;9.23;5.93;;;17.10;99.90;;;;;;5040798;28;20585;-67
2022/06/28 06:58:16;;;;;;;10.73;6.30;;;17.40;99.90;;;;;;5027898;28;21128;-67
2022/06/28 07:00:43;;;;;;;8.20;5.18;;;17.40;99.90;;;;;;5040166;28;22322;-68
2022/06/28 07:03:10;;;;;;;9.05;6.00;;;17.50;99.90;;;;;;5035777;28;20288;-68
2022/06/28 07:05:38;;;;;;;11.75;6.10;;;17.70;99.90;;;;;;5038531;28;20225;-68
2022/06/28 07:08:05;;;;;;;7.80;5.38;;;17.50;99.90;;;;;;5043055;28;20588;-67
2022/06/28 07:10:32;;;;;;;8.63;5.28;;;18.30;99.90;;;;;;5016809;28;20997;-67
2022/06/28 07:13:00;;;;;;;5.78;4.03;;;17.70;99.90;;;;;;5050490;28;20204;-67
2022/06/28 07:15:27;;;;;;;5.25;3.40;;;17.80;99.90;;;;;;5020054;28;20690;-68
2022/06/28 07:17:54;;;;;;;7.05;2.88;;;;;;;;;;5039483;28;20205;-67
2022/06/28 07:20:21;;;;;;;7.32;3.42;;;17.90;99.90;;;;;;5027035;28;20731;-68
2022/06/28 07:22:50;;;;;;;4.82;3.33;;;18.00;99.90;;;;;;5044908;28;20247;-67
2022/06/28 07:25:17;;;;;;;11.65;3.63;;;17.90;99.90;;;;;;5038776;28;20856;-67
2022/06/28 07:27:43;;;;;;;5.53;2.60;;;17.80;99.90;;;;;;5048740;28;20221;-68
2022/06/28 07:30:11;;;;;;;5.40;2.30;;;17.70;99.90;;;;;;5029110;28;21103;-67
2022/06/28 07:32:38;;;;;;;8.95;3.13;;;17.70;99.90;;;;;;5037654;28;20208;-68
2022/06/28 07:35:06;;;;;;;4.93;2.70;;;17.60;99.90;;;;;;5037322;28;20229;-67
2022/06/28 07:37:33;;;;;;;4.07;2.38;;;17.70;99.90;;;;;;5035781;28;20199;-67
2022/06/28 07:40:02;;;;;;;5.55;2.72;;;17.90;99.90;;;;;;5025670;28;20263;-68
2022/06/28 07:42:28;;;;;;;9.88;2.65;;;17.70;99.90;;;;;;5042861;28;20228;-68
2022/06/28 07:44:56;;;;;;;8.90;3.13;;;;;;;;;;5022396;28;21073;-68
2022/06/28 07:47:23;;;;;;;6.45;2.67;;;17.70;99.90;;;;;;5028549;28;20298;-67
2022/06/28 07:52:34;;;;;;;5.55;2.53;;;17.70;99.90;;;;;;5034254;28;20239;-68
2022/06/28 07:55:05;;;;;;;13.85;3.30;;;17.70;99.90;;;;;;5042084;28;20212;-69
2022/06/28 07:57:32;;;;;;;5.25;2.75;;;18.00;99.90;;;;;;5038277;28;20220;-65
2022/06/28 07:59:59;;;;;;;7.18;3.22;;;18.10;99.90;;;;;;5036417;28;20221;-65
2022/06/28 08:02:26;;;;;;;3.85;3.05;;;17.80;99.90;;;;;;5031737;28;20673;-68
2022/06/28 08:04:53;;;;;;;6.85;2.70;;;18.80;99.90;;;;;;5038554;28;20205;-68
2022/06/28 08:07:19;;;;;;;6.47;3.25;;;17.90;99.90;;;;;;5038468;28;20216;-67
2022/06/28 08:09:46;;;;;;;8.85;2.95;;;18.00;99.90;;;;;;5035922;28;20217;-67
2022/06/28 08:12:15;;;;;;;4.68;2.85;;;18.00;99.90;;;;;;5040122;28;20678;-67
2022/06/28 08:14:42;;;;;;;5.57;3.03;;;18.10;99.90;;;;;;5037958;28;20232;-68
2022/06/28 08:17:09;;;;;;;5.68;3.67;;;18.00;99.90;;;;;;5027234;28;20229;-67
2022/06/28 08:19:36;;;;;;;14.32;3.63;;;18.10;99.90;;;;;;5036420;28;20238;-68
2022/06/28 08:22:04;;;;;;;7.65;3.63;;;18.10;99.90;;;;;;5037471;28;20234;-69
2022/06/28 08:24:31;;;;;;;5.20;3.35;;;18.30;99.90;;;;;;5023386;28;20220;-67
2022/06/28 08:26:58;;;;;;;6.68;3.67;;;18.20;99.90;;;;;;5027295;28;20736;-67
2022/06/28 08:29:26;;;;;;;7.78;3.67;;;18.20;99.90;;;;;;5040841;28;20221;-67
2022/06/28 08:31:55;;;;;;;9.35;3.88;;;18.40;99.90;;;;;;5018548;28;20235;-67
2022/06/28 08:34:22;;;;;;;8.63;3.55;;;18.30;99.90;;;;;;5043587;28;20686;-67
2022/06/28 08:36:49;;;;;;;6.63;3.10;;;18.50;99.90;;;;;;5037610;28;20209;-66
2022/06/28 08:39:16;;;;;;;6.82;3.28;;;18.60;99.90;;;;;;5024789;28;20902;-66
2022/06/28 08:41:43;;;;;;;5.47;3.10;;;18.50;99.90;;;;;;5045969;28;20207;-66
2022/06/28 08:44:11;;;;;;;7.22;3.10;;;18.50;99.90;;;;;;5035553;28;20220;-67
2022/06/28 08:46:40;;;;;;;4.50;3.42;;;18.60;99.90;;;;;;5035363;28;20308;-67
2022/06/28 08:49:14;;;;;;;10.05;4.07;;;18.60;99.90;;;;;;5029840;28;20218;-66
2022/06/28 08:51:42;;;;;;;8.05;4.05;;;14.90;99.90;;;;;;5031758;28;20561;-67
2022/06/28 08:54:09;;;;;;;9.68;3.63;;;21.10;99.90;;;;;;5023823;28;20235;-67
2022/06/28 08:56:38;;;;;;;8.60;3.60;;;18.70;99.90;;;;;;5031736;28;20217;-66
2022/06/28 08:59:07;;;;;;;6.22;3.58;;;18.70;99.90;;;;;;5030749;28;20731;-66
2022/06/28 09:01:34;;;;;;;6.95;4.20;;;18.80;99.90;;;;;;5022576;28;20259;-67
2022/06/28 09:04:05;;;;;;;8.40;3.72;;;18.50;99.90;;;;;;5026935;28;20752;-66
2022/06/28 09:06:31;;;;;;;11.85;3.67;;;18.40;99.90;;;;;;5041192;28;20201;-66
2022/06/28 09:08:58;;;;;;;5.72;3.58;;;18.50;99.90;;;;;;5033621;28;20564;-66
2022/06/28 09:11:26;;;;;;;5.03;3.38;;;;;;;;;;5031706;28;20232;-67
2022/06/28 09:13:52;;;;;;;5.57;3.67;;;18.80;99.90;;;;;;5036659;28;20292;-67
2022/06/28 09:16:20;;;;;;;8.27;3.65;;;18.70;99.90;;;;;;5036293;28;20208;-66
2022/06/28 09:18:48;;;;;;;5.43;3.28;;;18.70;99.90;;;;;;5033092;28;20592;-67
2022/06/28 09:21:18;;;;;;;6.40;3.35;;;18.90;99.90;;;;;;5023193;28;20213;-67
2022/06/28 09:23:47;;;;;;;8.48;3.97;;;19.30;99.90;;;;;;5028543;28;20390;-67
2022/06/28 09:26:17;;;;;;;5.35;3.67;;;19.10;99.90;;;;;;5031795;28;20216;-66
2022/06/28 09:28:46;;;;;;;6.45;3.58;;;19.20;99.90;;;;;;5035733;28;21030;-67
2022/06/28 09:31:17;;;;;;;5.70;3.53;;;;;;;;;;5027894;28;20559;-67
2022/06/28 09:33:44;;;;;;;5.80;3.08;;;19.10;99.90;;;;;;5030669;28;20295;-67
2022/06/28 09:36:14;;;;;;;6.10;2.65;;;19.40;99.90;;;;;;5019070;28;20212;-66
2022/06/28 09:38:43;;;;;;;3.63;2.40;;;19.30;99.90;;;;;;5043779;28;20298;-66
2022/06/28 09:41:24;;;;;;;7.75;3.00;;;19.60;99.90;;;;;;5025297;28;20220;-66
2022/06/28 09:43:56;;;;;;;3.10;2.53;;;19.60;99.90;;;;;;5041736;28;20295;-66
2022/06/28 09:46:26;;;;;;;4.28;2.70;;;19.60;99.90;;;;;;5036078;28;20749;-66
2022/06/28 09:48:57;;;;;;;3.25;2.60;;;19.90;99.90;;;;;;5039223;28;20211;-65
2022/06/28 09:51:26;;;;;;;3.47;2.28;;;20.00;99.90;;;;;;5026737;28;20722;-64
2022/06/28 09:53:56;;;;;;;7.28;2.55;;;20.00;99.90;;;;;;5044195;28;20205;-65
2022/06/28 09:56:25;;;;;;;4.60;2.60;;;20.30;99.90;;;;;;5025939;28;20192;-66
2022/06/28 09:58:52;;;;;;;4.60;2.53;;;19.60;99.90;;;;;;5036253;28;22106;-66
2022/06/28 10:01:20;;;;;;;3.17;2.40;;;22.80;99.90;;;;;;5029829;28;20229;-66
2022/06/28 10:03:52;;;;;;;5.35;2.30;;;19.30;99.90;;;;;;5031844;28;20981;-66
2022/06/28 10:06:21;;;;;;;4.47;2.30;;;19.60;99.90;;;;;;5004372;28;20236;-66
2022/06/28 10:08:49;;;;;;;6.03;2.42;;;19.30;99.90;;;;;;5037336;28;20217;-65
2022/06/28 10:11:18;;;;;;;4.30;2.50;;;19.40;99.90;;;;;;5020203;28;20212;-65
2022/06/28 10:16:46;;;;;;;3.85;2.50;;;19.50;99.90;;;;;;5044539;28;20238;-66
2022/06/28 10:19:15;;;;;;;5.85;2.10;;;19.40;99.90;;;;;;5037292;28;20236;-66
2022/06/28 10:22:10;;;;;;;4.70;2.40;;;19.30;99.90;;;;;;5005774;28;20229;-66
2022/06/28 10:24:53;;;;;;;5.68;2.03;;;19.20;99.90;;;;;;5038548;28;23498;-66
2022/06/28 10:27:22;;;;;;;3.03;1.80;;;19.20;99.90;;;;;;5030365;28;20236;-66
2022/06/28 10:30:32;;;;;;;2.95;1.75;;;19.20;99.90;;;;;;5034962;28;20262;-66
2022/06/28 10:33:05;;;;;;;2.05;1.13;;;19.40;99.90;;;;;;5022681;28;20196;-66
2022/06/28 10:36:13;;;;;;;3.00;1.27;;;19.50;99.90;;;;;;5025961;28;20248;-67
2022/06/28 10:39:10;;;;;;;3.45;1.50;;;21.00;99.90;;;;;;5002600;28;20224;-66
2022/06/28 10:41:38;;;;;;;4.47;1.60;;;19.80;99.90;;;;;;5024213;28;20209;-66
2022/06/28 10:44:14;;;;;;;3.45;1.38;;;19.90;99.90;;;;;;5039911;28;20901;-66
2022/06/28 10:46:41;;;;;;;3.63;1.40;;;19.90;99.90;;;;;;5036227;28;20193;-66
2022/06/28 10:49:10;;;;;;;3.67;1.50;;;19.70;99.90;;;;;;5035579;28;20224;-67
2022/06/28 10:51:42;;;;;;;1.52;1.30;;;19.80;99.90;;;;;;5018229;28;20262;-66
2022/06/28 10:54:11;;;;;;;2.33;1.33;;;19.90;99.90;;;;;;5022482;28;20221;-66
2022/06/28 10:56:42;;;;;;;2.10;1.85;;;20.10;99.90;;;;;;5025529;28;20252;-66
2022/06/28 10:59:14;;;;;;;2.05;1.50;;;20.30;99.90;;;;;;5029264;28;20201;-66
2022/06/28 11:01:58;;;;;;;1.15;1.05;;;22.30;99.90;;;;;;5036724;28;20282;-65
2022/06/28 11:04:27;;;;;;;2.38;1.27;;;20.50;99.90;;;;;;5026316;28;20225;-66
2022/06/28 11:06:56;;;;;;;4.68;1.35;;;20.40;99.90;;;;;;5026904;28;20289;-67
2022/06/28 11:09:58;;;;;;;2.95;1.40;;;20.30;99.90;;;;;;5027225;28;20228;-66
2022/06/28 11:12:38;;;;;;;2.25;1.50;;;20.20;99.90;;;;;;4993621;28;20396;-66
2022/06/28 11:15:09;;;;;;;2.45;1.38;;;20.00;99.90;;;;;;5032088;28;20241;-66
2022/06/28 11:17:38;;;;;;;2.15;1.40;;;20.00;99.90;;;;;;5042341;28;21191;-66
2022/06/28 11:20:08;;;;;;;2.38;1.50;;;19.40;99.90;;;;;;5045407;28;20305;-66
2022/06/28 11:22:39;;;;;;;1.95;1.42;;;20.10;99.90;;;;;;5024781;28;20206;-66
2022/06/28 11:25:08;;;;;;;2.88;1.25;;;19.80;99.90;;;;;;5025066;28;20241;-66
2022/06/28 11:27:34;;;;;;;1.30;1.20;;;19.90;99.90;;;;;;5031621;28;20224;-66
2022/06/28 11:30:07;;;;;;;5.45;1.50;;;19.80;99.90;;;;;;5035078;28;20209;-67
2022/06/28 11:32:36;;;;;;;2.47;1.02;;;20.10;99.90;;;;;;5037898;28;20228;-66
2022/06/28 11:35:06;;;;;;;2.22;1.35;;;19.90;99.90;;;;;;5032403;28;20205;-67
2022/06/28 11:37:46;;;;;;;5.28;1.73;;;20.10;99.90;;;;;;5031944;28;20192;-66
2022/06/28 11:40:13;;;;;;;2.50;1.33;;;20.20;99.90;;;;;;5024041;28;20775;-65
2022/06/28 11:42:40;;;;;;;1.67;1.58;;;20.20;99.90;;;;;;5028534;28;20224;-67
2022/06/28 11:45:10;;;;;;;3.20;1.30;;;20.30;99.90;;;;;;5033406;28;20197;-66
2022/06/28 11:47:37;;;;;;;5.85;1.60;;;20.30;99.90;;;;;;5041147;28;20228;-67
2022/06/28 11:50:17;;;;;;;1.83;1.40;;;20.30;99.90;;;;;;5051530;28;20212;-66
2022/06/28 11:52:52;;;;;;;2.60;1.35;;;20.60;99.90;;;;;;5039123;28;20201;-65
2022/06/28 11:55:20;;;;;;;4.80;1.60;;;20.60;99.90;;;;;;5021025;28;20212;-67
2022/06/28 11:58:09;;;;;;;2.88;1.55;;;20.50;99.90;;;;;;5037020;28;20205;-66
2022/06/28 12:00:38;;;;;;;2.70;0.95;;;20.40;99.90;;;;;;5041138;28;21139;-67
2022/06/28 12:03:06;;;;;;;1.17;1.00;;;20.60;99.90;;;;;;5026374;28;20217;-65
2022/06/28 12:05:35;;;;;;;1.85;1.05;;;21.00;99.90;;;;;;5041493;28;20247;-66
2022/06/28 12:08:04;;;;;;;7.53;1.33;;;20.80;99.90;;;;;;5039309;28;20655;-65
2022/06/28 12:10:33;;;;;;;1.98;1.30;;;20.80;99.90;;;;;;5025609;28;20216;-65
2022/06/28 12:13:09;;;;;;;2.35;1.20;;;20.80;99.90;;;;;;5035876;28;20251;-65
2022/06/28 12:15:38;;;;;;;1.95;1.35;;;21.00;99.90;;;;;;5026763;28;20213;-65
2022/06/28 12:18:08;;;;;;;1.25;1.10;;;21.30;99.90;;;;;;5031855;28;20204;-66
2022/06/28 12:20:36;;;;;;;3.17;1.30;;;21.20;99.90;;;;;;5045708;28;20828;-65
2022/06/28 12:23:06;;;;;;;2.42;1.40;;;21.30;99.90;;;;;;5026721;28;20204;-66
2022/06/28 12:25:33;;;;;;;3.00;1.20;;;21.10;99.90;;;;;;5026436;28;20695;-65
2022/06/28 12:28:01;;;;;;;2.15;1.30;;;;;;;;;;5032189;28;20229;-66
2022/06/28 12:30:28;;;;;;;3.10;1.23;;;21.20;99.90;;;;;;5012599;28;20221;-65
2022/06/28 12:32:58;;;;;;;2.20;1.23;;;;;;;;;;5020304;28;20200;-65
2022/06/28 12:35:25;;;;;;;5.50;1.67;;;21.10;99.90;;;;;;5043261;28;20315;-65
2022/06/28 12:37:54;;;;;;;6.45;1.38;;;21.10;99.90;;;;;;5029273;28;20201;-65
2022/06/28 12:40:24;;;;;;;4.53;1.45;;;20.80;99.90;;;;;;5025662;28;20697;-65
2022/06/28 12:42:51;;;;;;;2.58;1.20;;;20.90;99.90;;;;;;5020385;28;20220;-65
2022/06/28 12:45:17;;;;;;;4.18;1.23;;;20.50;99.90;;;;;;5007690;28;24166;-66
2022/06/28 12:47:44;;;;;;;3.10;1.33;;;20.70;99.90;;;;;;5023040;28;20960;-66
2022/06/28 12:50:16;;;;;;;1.52;1.13;;;;;;;;;;5032429;28;20215;-65
2022/06/28 12:52:44;;;;;;;2.10;1.33;;;20.60;99.90;;;;;;5023496;28;20240;-64
2022/06/28 12:55:11;;;;;;;2.42;1.30;;;20.60;99.90;;;;;;5023808;28;20205;-67
2022/06/28 12:57:39;;;;;;;10.85;1.42;;;;;;;;;;5015301;28;20220;-64
2022/06/28 13:00:09;;;;;;;2.63;1.55;;;21.70;99.90;;;;;;5023120;28;21056;-66
2022/06/28 13:02:36;;;;;;;1.60;1.40;;;21.00;99.90;;;;;;5010455;28;20221;-65
2022/06/28 13:05:04;;;;;;;2.45;1.20;;;21.00;99.90;;;;;;5022296;28;20197;-65
2022/06/28 13:07:32;;;;;;;1.55;1.10;;;;;;;;;;5034344;28;20212;-64